Scroll down
FLIGHT INFORMATION
Northwest Airlines

NWA74

At Arrival Gate

KATL
 EHAM
DATE: 2019-08-25
GATE: F8
GATE DEPARTURE: 23:55
TAKEOFF: 00:08
DATE: 2019-08-26
GATE: E18
LANDING: 07:43
GATE ARRIVAL: 07:49
FLIGHT DATA
Crew: 
Speed: 
525 kts
Altitude: 
37,026 ft
Stage Length: 
3,815.2 nm
Block Time: 
7.9 hrs
Flight Time: 
7.6 hrs
Fuel Used: 
170,446 lb
Cleared Route: KATL LIDAS ERWIN PLMMR TENSE NWANT SPA NYBLK MASHI KIDDO OMENS BEARI PXT GARED CLASY RIDGY CANNY PALMM ENO BESSI EDJER DAVYS BRAND RBV LLUND BAYYS PUT TOPPS ALLRY 5150N 5340N 5430N 5520N RESNO NETKI NIBOG REMSI BELOX TENSO DESIG ELNOD MAMUL EDUXO LAMIX ROGAG AMVEL DOLAS ENITO DIBAL BUKUT LAMSO ETPOS SUGOL EHAM
TRACK DATA
50,000 ft 1,000 kts
AIRCRAFT INFO AND CUMULATIVE STATS
Aircraft Type: 
B744
Registration: 
SELCAL: 
EGKP
MSN/LN: 
23720 / 708
Operator: 
Total Flights: 
4
Total Block Time: 
25.3 hrs
Total Flight Time: 
24.2 hrs
Total Fuel Time: 
424,711 lb
DATALINK LOG | Newest first | Current as of: 2021-01-20 23:20:17
LABEL SEQUENCE CONTENT Dn/Up
QD505207:49 43.9▼ Dn
QC430507:43▼ Dn
GA2034GATE E18▲ Up
GR1935EHAM 07:33 YP/UM 00/03 WCHR/S/C 03/00/00▼ Dn
2U2033EHAM 260655Z VRB01KT CAVOK 23/18 Q1019 NOSIG▲ Up
2S1804EHAM▼ Dn
QB094900:08▼ Dn
QA563923:55 214.4▼ Dn
A35247CLEARED TO EHAM VIA PLMMR2 SPA Q22 BEARI PXT J191 RBV LLUND BAYYS PUT TOPPS N383B ALLRY NATQ RESNO NATQ NETKI NIBOG REMSI L603 LAMSO LAMS2A. SQUAWK 3445.▲ Up
2U5244KATL 252342Z 11010KT 10SM SCT026 BKN044 OVC100 24/18 A3004 RMK AO2 T02390178▲ Up
2S5235KATL▼ Dn
Q05135[LINK ACK]▲ Up
Q05157[LINK TEST]▼ Dn


AIRCRAFT HISTORY
FLIGHT DATE FLIGHT NO. ORIGIN DESTINATION CLEARED ROUTE BLOCK TIME FLIGHT TIME FUEL USED PILOT
2020-06-07NWA607KSEA PHNL KSEA DODVE WUREL ATOME BREMM HAROB HQM SEDAR FOZZI HEKAB HELOP HALLI AUNTI APACK TOADS SOPIW MAGGI BAMBO GRITL CKH OOKAH RW08L5.4 hrs5.3 hrs2,221 lbRandall Smith
2020-01-28NWA128KMSP KSEA KMSP ZOGAP PAGOZ SMERF DIK HILGR GTF MLP GEG TEMPL WITRO ODAHL GLASR JAKSN WOODI HETHR KENMO RW16L2.9 hrs2.8 hrs52,311 lbRandall Smith
2019-09-03NWA161EHAM KMSP EHAM EH029 EH009 EH028 BERGI LEGBA ODASI LONAM NATEB AGPED OTBUN IPSAD HAVEN TLA GOW ERAKA 6020N 6130N 6140N 6050N URTAK MCKEE 9H YAN DLH HHOGS MILAC BAINY LUCCY SAUGR GEP PRRPL MAUER JJENI KMSP8.9 hrs8.5 hrs199,734 lbKyle Rodgers
2019-08-25NWA74KATL EHAM KATL LIDAS ERWIN PLMMR TENSE NWANT SPA NYBLK MASHI KIDDO OMENS BEARI PXT GARED CLASY RIDGY CANNY PALMM ENO BESSI EDJER DAVYS BRAND RBV LLUND BAYYS PUT TOPPS ALLRY 5150N 5340N 5430N 5520N RESNO NETKI NIBOG REMSI BELOX TENSO DESIG ELNOD MAMUL EDUXO LAMIX ROGAG AMVEL DOLAS ENITO DIBAL BUKUT LAMSO ETPOS SUGOL EHAM7.9 hrs7.6 hrs170,446 lbKyle Rodgers